sensor_id;sensor_type;location;lat;lon;timestamp;P1;durP1;ratioP1;P2;durP2;ratioP2
32964;SDS011;19317;48.226;11.686;2023-11-22T00:03:14;10.77;;;8.80;;
32964;SDS011;19317;48.226;11.686;2023-11-22T00:08:05;9.97;;;8.33;;
32964;SDS011;19317;48.226;11.686;2023-11-22T00:12:56;9.40;;;8.00;;
32964;SDS011;19317;48.226;11.686;2023-11-22T00:17:47;10.67;;;8.87;;
32964;SDS011;19317;48.226;11.686;2023-11-22T00:22:38;9.00;;;8.00;;
32964;SDS011;19317;48.226;11.686;2023-11-22T00:27:29;9.03;;;8.13;;
32964;SDS011;19317;48.226;11.686;2023-11-22T00:32:20;9.57;;;7.90;;
32964;SDS011;19317;48.226;11.686;2023-11-22T00:37:11;12.87;;;8.60;;
32964;SDS011;19317;48.226;11.686;2023-11-22T00:42:02;10.57;;;8.47;;
32964;SDS011;19317;48.226;11.686;2023-11-22T00:46:53;9.77;;;7.33;;
32964;SDS011;19317;48.226;11.686;2023-11-22T00:51:44;8.33;;;7.53;;
32964;SDS011;19317;48.226;11.686;2023-11-22T00:56:35;8.37;;;7.47;;
32964;SDS011;19317;48.226;11.686;2023-11-22T01:01:25;8.30;;;7.10;;
32964;SDS011;19317;48.226;11.686;2023-11-22T01:06:16;10.70;;;7.20;;
32964;SDS011;19317;48.226;11.686;2023-11-22T01:11:07;8.00;;;7.20;;
32964;SDS011;19317;48.226;11.686;2023-11-22T01:15:58;8.17;;;6.73;;
32964;SDS011;19317;48.226;11.686;2023-11-22T01:20:50;9.63;;;7.30;;
32964;SDS011;19317;48.226;11.686;2023-11-22T01:25:41;7.73;;;6.83;;
32964;SDS011;19317;48.226;11.686;2023-11-22T01:30:31;7.33;;;6.63;;
32964;SDS011;19317;48.226;11.686;2023-11-22T01:35:22;7.87;;;7.07;;
32964;SDS011;19317;48.226;11.686;2023-11-22T01:40:13;7.73;;;6.67;;
32964;SDS011;19317;48.226;11.686;2023-11-22T01:45:04;6.77;;;6.07;;
32964;SDS011;19317;48.226;11.686;2023-11-22T01:49:55;5.90;;;5.40;;
32964;SDS011;19317;48.226;11.686;2023-11-22T01:54:46;6.07;;;5.20;;
32964;SDS011;19317;48.226;11.686;2023-11-22T01:59:37;5.63;;;5.13;;
32964;SDS011;19317;48.226;11.686;2023-11-22T02:04:28;4.23;;;3.90;;
32964;SDS011;19317;48.226;11.686;2023-11-22T02:09:19;4.60;;;3.30;;
32964;SDS011;19317;48.226;11.686;2023-11-22T02:14:10;3.50;;;3.20;;
32964;SDS011;19317;48.226;11.686;2023-11-22T02:19:01;3.17;;;2.90;;
32964;SDS011;19317;48.226;11.686;2023-11-22T02:23:52;3.63;;;3.33;;
32964;SDS011;19317;48.226;11.686;2023-11-22T02:28:43;3.50;;;3.20;;
32964;SDS011;19317;48.226;11.686;2023-11-22T02:33:34;4.70;;;3.67;;
32964;SDS011;19317;48.226;11.686;2023-11-22T02:38:25;3.60;;;3.30;;
32964;SDS011;19317;48.226;11.686;2023-11-22T02:43:16;3.83;;;3.53;;
32964;SDS011;19317;48.226;11.686;2023-11-22T02:48:06;4.27;;;3.87;;
32964;SDS011;19317;48.226;11.686;2023-11-22T02:52:58;3.50;;;3.20;;
32964;SDS011;19317;48.226;11.686;2023-11-22T02:57:49;4.10;;;3.80;;
32964;SDS011;19317;48.226;11.686;2023-11-22T03:02:40;3.80;;;3.50;;
32964;SDS011;19317;48.226;11.686;2023-11-22T03:07:31;3.60;;;3.30;;
32964;SDS011;19317;48.226;11.686;2023-11-22T03:12:22;3.90;;;3.60;;
32964;SDS011;19317;48.226;11.686;2023-11-22T03:17:14;4.17;;;3.77;;
32964;SDS011;19317;48.226;11.686;2023-11-22T03:22:05;4.37;;;3.97;;
32964;SDS011;19317;48.226;11.686;2023-11-22T03:26:56;4.33;;;4.00;;
32964;SDS011;19317;48.226;11.686;2023-11-22T03:31:47;4.20;;;3.73;;
32964;SDS011;19317;48.226;11.686;2023-11-22T03:36:39;4.00;;;3.70;;
32964;SDS011;19317;48.226;11.686;2023-11-22T03:41:30;4.20;;;3.90;;
32964;SDS011;19317;48.226;11.686;2023-11-22T03:46:21;5.83;;;3.80;;
32964;SDS011;19317;48.226;11.686;2023-11-22T03:51:12;4.30;;;3.83;;
32964;SDS011;19317;48.226;11.686;2023-11-22T03:56:03;4.60;;;4.20;;
32964;SDS011;19317;48.226;11.686;2023-11-22T04:00:54;4.50;;;3.57;;
32964;SDS011;19317;48.226;11.686;2023-11-22T04:05:45;4.33;;;3.93;;
32964;SDS011;19317;48.226;11.686;2023-11-22T04:10:36;4.17;;;3.77;;
32964;SDS011;19317;48.226;11.686;2023-11-22T04:15:27;3.90;;;3.50;;
32964;SDS011;19317;48.226;11.686;2023-11-22T04:20:17;3.77;;;3.47;;
32964;SDS011;19317;48.226;11.686;2023-11-22T04:25:08;3.97;;;3.67;;
32964;SDS011;19317;48.226;11.686;2023-11-22T04:29:59;4.20;;;3.80;;
32964;SDS011;19317;48.226;11.686;2023-11-22T04:34:50;4.00;;;3.60;;
32964;SDS011;19317;48.226;11.686;2023-11-22T04:39:41;4.10;;;3.70;;
32964;SDS011;19317;48.226;11.686;2023-11-22T04:44:32;4.10;;;3.80;;
32964;SDS011;19317;48.226;11.686;2023-11-22T04:49:23;4.10;;;3.70;;
32964;SDS011;19317;48.226;11.686;2023-11-22T04:54:13;3.83;;;3.53;;
32964;SDS011;19317;48.226;11.686;2023-11-22T04:59:04;3.60;;;3.30;;
32964;SDS011;19317;48.226;11.686;2023-11-22T05:03:55;3.50;;;3.20;;
32964;SDS011;19317;48.226;11.686;2023-11-22T05:08:46;3.67;;;3.37;;
32964;SDS011;19317;48.226;11.686;2023-11-22T05:13:37;3.53;;;3.23;;
32964;SDS011;19317;48.226;11.686;2023-11-22T05:18:28;4.10;;;3.80;;
32964;SDS011;19317;48.226;11.686;2023-11-22T05:23:19;3.53;;;3.27;;
32964;SDS011;19317;48.226;11.686;2023-11-22T05:28:10;3.53;;;3.23;;
32964;SDS011;19317;48.226;11.686;2023-11-22T05:33:00;3.20;;;3.00;;
32964;SDS011;19317;48.226;11.686;2023-11-22T05:37:51;3.30;;;3.10;;
32964;SDS011;19317;48.226;11.686;2023-11-22T05:42:42;3.47;;;3.17;;
32964;SDS011;19317;48.226;11.686;2023-11-22T05:47:33;3.47;;;3.17;;
32964;SDS011;19317;48.226;11.686;2023-11-22T05:52:24;4.00;;;3.20;;
32964;SDS011;19317;48.226;11.686;2023-11-22T05:57:15;3.40;;;3.20;;
32964;SDS011;19317;48.226;11.686;2023-11-22T06:02:06;3.60;;;3.30;;
32964;SDS011;19317;48.226;11.686;2023-11-22T06:06:57;3.80;;;3.50;;
32964;SDS011;19317;48.226;11.686;2023-11-22T06:11:48;3.70;;;3.40;;
32964;SDS011;19317;48.226;11.686;2023-11-22T06:16:38;3.60;;;3.30;;
32964;SDS011;19317;48.226;11.686;2023-11-22T06:21:29;3.93;;;3.63;;
32964;SDS011;19317;48.226;11.686;2023-11-22T06:26:20;4.00;;;3.60;;
32964;SDS011;19317;48.226;11.686;2023-11-22T06:31:11;4.97;;;4.57;;
32964;SDS011;19317;48.226;11.686;2023-11-22T06:36:02;4.43;;;4.03;;
32964;SDS011;19317;48.226;11.686;2023-11-22T06:40:53;5.20;;;4.70;;
32964;SDS011;19317;48.226;11.686;2023-11-22T06:45:44;5.10;;;4.50;;
32964;SDS011;19317;48.226;11.686;2023-11-22T06:50:35;4.80;;;4.40;;
32964;SDS011;19317;48.226;11.686;2023-11-22T06:55:26;4.50;;;4.10;;
32964;SDS011;19317;48.226;11.686;2023-11-22T07:00:17;4.70;;;4.30;;
32964;SDS011;19317;48.226;11.686;2023-11-22T07:05:08;5.83;;;5.33;;
32964;SDS011;19317;48.226;11.686;2023-11-22T07:09:59;5.57;;;4.47;;
32964;SDS011;19317;48.226;11.686;2023-11-22T07:14:50;4.80;;;4.20;;
32964;SDS011;19317;48.226;11.686;2023-11-22T07:19:40;4.80;;;4.40;;
32964;SDS011;19317;48.226;11.686;2023-11-22T07:24:31;4.70;;;4.30;;
32964;SDS011;19317;48.226;11.686;2023-11-22T07:29:22;5.20;;;4.10;;
32964;SDS011;19317;48.226;11.686;2023-11-22T07:34:13;4.77;;;4.37;;
32964;SDS011;19317;48.226;11.686;2023-11-22T07:39:04;4.87;;;4.47;;
32964;SDS011;19317;48.226;11.686;2023-11-22T07:43:55;5.00;;;4.50;;
32964;SDS011;19317;48.226;11.686;2023-11-22T07:48:46;5.20;;;4.73;;
32964;SDS011;19317;48.226;11.686;2023-11-22T11:14:51;3.93;;;3.63;;
32964;SDS011;19317;48.226;11.686;2023-11-22T11:19:42;4.27;;;3.97;;
32964;SDS011;19317;48.226;11.686;2023-11-22T11:24:39;4.00;;;3.70;;
32964;SDS011;19317;48.226;11.686;2023-11-22T11:29:34;4.07;;;3.77;;
32964;SDS011;19317;48.226;11.686;2023-11-22T11:34:25;3.80;;;3.50;;
32964;SDS011;19317;48.226;11.686;2023-11-22T11:39:16;5.33;;;3.70;;
32964;SDS011;19317;48.226;11.686;2023-11-22T11:44:07;4.60;;;4.20;;
32964;SDS011;19317;48.226;11.686;2023-11-22T11:48:58;7.50;;;6.73;;
32964;SDS011;19317;48.226;11.686;2023-11-22T11:53:49;3.97;;;3.67;;
32964;SDS011;19317;48.226;11.686;2023-11-22T11:58:44;4.20;;;3.80;;
32964;SDS011;19317;48.226;11.686;2023-11-22T12:03:37;3.83;;;3.53;;
32964;SDS011;19317;48.226;11.686;2023-11-22T12:08:28;4.00;;;3.70;;
32964;SDS011;19317;48.226;11.686;2023-11-22T12:13:22;4.03;;;3.63;;
32964;SDS011;19317;48.226;11.686;2023-11-22T12:18:13;3.90;;;3.60;;
32964;SDS011;19317;48.226;11.686;2023-11-22T12:23:04;4.30;;;3.90;;
32964;SDS011;19317;48.226;11.686;2023-11-22T12:27:55;4.37;;;4.07;;
32964;SDS011;19317;48.226;11.686;2023-11-22T12:32:46;4.47;;;4.07;;
32964;SDS011;19317;48.226;11.686;2023-11-22T12:37:37;4.53;;;4.13;;
32964;SDS011;19317;48.226;11.686;2023-11-22T12:42:28;4.77;;;4.37;;
32964;SDS011;19317;48.226;11.686;2023-11-22T12:47:31;4.20;;;3.83;;
32964;SDS011;19317;48.226;11.686;2023-11-22T12:52:25;3.97;;;3.67;;
32964;SDS011;19317;48.226;11.686;2023-11-22T12:57:16;4.00;;;3.70;;
32964;SDS011;19317;48.226;11.686;2023-11-22T13:02:07;4.93;;;4.53;;
32964;SDS011;19317;48.226;11.686;2023-11-22T13:06:58;4.40;;;4.00;;
32964;SDS011;19317;48.226;11.686;2023-11-22T13:11:49;4.80;;;4.40;;
32964;SDS011;19317;48.226;11.686;2023-11-22T13:16:40;5.17;;;4.70;;
32964;SDS011;19317;48.226;11.686;2023-11-22T13:21:31;4.67;;;4.27;;
32964;SDS011;19317;48.226;11.686;2023-11-22T13:26:22;4.70;;;4.30;;
32964;SDS011;19317;48.226;11.686;2023-11-22T13:31:13;4.33;;;3.97;;
32964;SDS011;19317;48.226;11.686;2023-11-22T13:36:04;4.10;;;3.80;;
32964;SDS011;19317;48.226;11.686;2023-11-22T13:40:55;6.40;;;3.47;;
32964;SDS011;19317;48.226;11.686;2023-11-22T13:45:46;4.07;;;3.77;;
32964;SDS011;19317;48.226;11.686;2023-11-22T13:50:37;3.73;;;3.43;;
32964;SDS011;19317;48.226;11.686;2023-11-22T13:55:28;3.83;;;3.53;;
32964;SDS011;19317;48.226;11.686;2023-11-22T14:00:20;10.10;;;3.90;;
32964;SDS011;19317;48.226;11.686;2023-11-22T14:05:11;5.67;;;3.73;;
32964;SDS011;19317;48.226;11.686;2023-11-22T14:10:02;4.23;;;3.83;;
32964;SDS011;19317;48.226;11.686;2023-11-22T14:14:53;7.17;;;5.50;;
32964;SDS011;19317;48.226;11.686;2023-11-22T14:19:44;4.20;;;3.90;;
32964;SDS011;19317;48.226;11.686;2023-11-22T14:24:35;4.00;;;3.70;;
32964;SDS011;19317;48.226;11.686;2023-11-22T14:29:26;3.87;;;3.57;;
32964;SDS011;19317;48.226;11.686;2023-11-22T14:34:17;4.80;;;4.30;;
32964;SDS011;19317;48.226;11.686;2023-11-22T14:39:08;3.70;;;3.40;;
32964;SDS011;19317;48.226;11.686;2023-11-22T14:43:59;4.37;;;3.27;;
32964;SDS011;19317;48.226;11.686;2023-11-22T14:48:50;3.80;;;3.50;;
32964;SDS011;19317;48.226;11.686;2023-11-22T14:53:41;4.20;;;3.90;;
32964;SDS011;19317;48.226;11.686;2023-11-22T14:58:32;3.80;;;3.50;;
32964;SDS011;19317;48.226;11.686;2023-11-22T15:03:22;4.10;;;3.70;;
32964;SDS011;19317;48.226;11.686;2023-11-22T15:08:13;4.17;;;3.70;;
32964;SDS011;19317;48.226;11.686;2023-11-22T15:13:04;5.10;;;4.70;;
32964;SDS011;19317;48.226;11.686;2023-11-22T15:17:55;6.67;;;4.53;;
32964;SDS011;19317;48.226;11.686;2023-11-22T15:22:46;6.53;;;5.60;;
32964;SDS011;19317;48.226;11.686;2023-11-22T15:27:37;4.90;;;4.50;;
32964;SDS011;19317;48.226;11.686;2023-11-22T15:32:28;4.63;;;3.80;;
32964;SDS011;19317;48.226;11.686;2023-11-22T15:37:18;7.90;;;4.00;;
32964;SDS011;19317;48.226;11.686;2023-11-22T15:42:09;4.27;;;3.87;;
32964;SDS011;19317;48.226;11.686;2023-11-22T15:47:00;3.83;;;3.53;;
32964;SDS011;19317;48.226;11.686;2023-11-22T15:51:51;4.47;;;4.07;;
32964;SDS011;19317;48.226;11.686;2023-11-22T15:56:43;4.10;;;3.80;;
32964;SDS011;19317;48.226;11.686;2023-11-22T16:01:34;5.23;;;4.10;;
32964;SDS011;19317;48.226;11.686;2023-11-22T16:06:25;4.43;;;4.10;;
32964;SDS011;19317;48.226;11.686;2023-11-22T16:11:16;4.10;;;3.80;;
32964;SDS011;19317;48.226;11.686;2023-11-22T16:16:06;4.20;;;3.83;;
32964;SDS011;19317;48.226;11.686;2023-11-22T16:20:57;4.57;;;4.17;;
32964;SDS011;19317;48.226;11.686;2023-11-22T16:25:49;5.93;;;4.70;;
32964;SDS011;19317;48.226;11.686;2023-11-22T16:30:40;6.93;;;5.20;;
32964;SDS011;19317;48.226;11.686;2023-11-22T16:35:30;5.50;;;4.60;;
32964;SDS011;19317;48.226;11.686;2023-11-22T16:40:21;5.43;;;4.50;;
32964;SDS011;19317;48.226;11.686;2023-11-22T16:45:12;4.97;;;4.47;;
32964;SDS011;19317;48.226;11.686;2023-11-22T16:50:03;5.10;;;4.70;;
32964;SDS011;19317;48.226;11.686;2023-11-22T16:54:54;6.43;;;5.60;;
32964;SDS011;19317;48.226;11.686;2023-11-22T16:59:45;5.50;;;5.00;;
32964;SDS011;19317;48.226;11.686;2023-11-22T17:04:36;5.33;;;4.83;;
32964;SDS011;19317;48.226;11.686;2023-11-22T17:09:27;6.27;;;5.67;;
32964;SDS011;19317;48.226;11.686;2023-11-22T17:14:18;8.30;;;5.77;;
32964;SDS011;19317;48.226;11.686;2023-11-22T17:19:09;5.57;;;5.07;;
32964;SDS011;19317;48.226;11.686;2023-11-22T17:24:00;7.70;;;6.97;;
32964;SDS011;19317;48.226;11.686;2023-11-22T17:28:51;5.83;;;5.23;;
32964;SDS011;19317;48.226;11.686;2023-11-22T17:33:42;5.30;;;4.80;;
32964;SDS011;19317;48.226;11.686;2023-11-22T17:38:34;6.80;;;5.17;;
32964;SDS011;19317;48.226;11.686;2023-11-22T17:43:25;5.57;;;5.10;;
32964;SDS011;19317;48.226;11.686;2023-11-22T17:48:16;5.87;;;5.37;;
32964;SDS011;19317;48.226;11.686;2023-11-22T17:53:06;6.27;;;5.67;;
32964;SDS011;19317;48.226;11.686;2023-11-22T17:57:57;5.70;;;5.13;;
32964;SDS011;19317;48.226;11.686;2023-11-22T18:02:48;8.20;;;7.27;;
32964;SDS011;19317;48.226;11.686;2023-11-22T18:07:39;6.07;;;5.53;;
32964;SDS011;19317;48.226;11.686;2023-11-22T18:12:30;6.47;;;5.43;;
32964;SDS011;19317;48.226;11.686;2023-11-22T18:17:21;6.53;;;5.93;;
32964;SDS011;19317;48.226;11.686;2023-11-22T18:22:12;6.30;;;5.70;;
32964;SDS011;19317;48.226;11.686;2023-11-22T18:27:03;6.20;;;5.63;;
32964;SDS011;19317;48.226;11.686;2023-11-22T18:31:54;5.70;;;5.20;;
32964;SDS011;19317;48.226;11.686;2023-11-22T18:36:45;5.80;;;5.30;;
32964;SDS011;19317;48.226;11.686;2023-11-22T18:41:36;6.60;;;6.00;;
32964;SDS011;19317;48.226;11.686;2023-11-22T18:46:27;8.13;;;7.33;;
32964;SDS011;19317;48.226;11.686;2023-11-22T18:51:17;7.73;;;7.00;;
32964;SDS011;19317;48.226;11.686;2023-11-22T18:56:08;6.00;;;5.50;;
32964;SDS011;19317;48.226;11.686;2023-11-22T19:00:59;7.63;;;6.93;;
32964;SDS011;19317;48.226;11.686;2023-11-22T19:05:50;7.20;;;6.40;;
32964;SDS011;19317;48.226;11.686;2023-11-22T19:10:41;6.50;;;5.67;;
32964;SDS011;19317;48.226;11.686;2023-11-22T19:15:45;7.33;;;6.63;;
32964;SDS011;19317;48.226;11.686;2023-11-22T19:20:36;7.00;;;6.13;;
32964;SDS011;19317;48.226;11.686;2023-11-22T19:25:26;6.87;;;6.00;;
32964;SDS011;19317;48.226;11.686;2023-11-22T19:30:17;6.90;;;6.20;;
32964;SDS011;19317;48.226;11.686;2023-11-22T19:35:08;7.30;;;6.27;;
32964;SDS011;19317;48.226;11.686;2023-11-22T19:39:59;6.40;;;5.80;;
32964;SDS011;19317;48.226;11.686;2023-11-22T19:44:50;7.30;;;6.57;;
32964;SDS011;19317;48.226;11.686;2023-11-22T19:49:41;7.50;;;6.80;;
32964;SDS011;19317;48.226;11.686;2023-11-22T19:54:32;6.87;;;6.17;;
32964;SDS011;19317;48.226;11.686;2023-11-22T19:59:23;7.40;;;6.60;;
32964;SDS011;19317;48.226;11.686;2023-11-22T20:04:13;6.93;;;6.23;;
32964;SDS011;19317;48.226;11.686;2023-11-22T20:09:04;8.10;;;7.10;;
32964;SDS011;19317;48.226;11.686;2023-11-22T20:13:55;7.63;;;6.93;;
32964;SDS011;19317;48.226;11.686;2023-11-22T20:18:46;9.30;;;8.40;;
32964;SDS011;19317;48.226;11.686;2023-11-22T20:23:38;7.90;;;7.20;;
32964;SDS011;19317;48.226;11.686;2023-11-22T20:28:29;7.97;;;7.17;;
32964;SDS011;19317;48.226;11.686;2023-11-22T20:33:19;7.97;;;7.17;;
32964;SDS011;19317;48.226;11.686;2023-11-22T20:38:10;8.50;;;7.60;;
32964;SDS011;19317;48.226;11.686;2023-11-22T20:43:01;7.90;;;7.10;;
32964;SDS011;19317;48.226;11.686;2023-11-22T20:47:52;7.83;;;7.07;;
32964;SDS011;19317;48.226;11.686;2023-11-22T20:52:43;8.10;;;7.30;;
32964;SDS011;19317;48.226;11.686;2023-11-22T20:57:34;8.80;;;7.20;;
32964;SDS011;19317;48.226;11.686;2023-11-22T21:02:25;7.77;;;6.97;;
32964;SDS011;19317;48.226;11.686;2023-11-22T21:07:16;9.90;;;8.23;;
32964;SDS011;19317;48.226;11.686;2023-11-22T21:12:07;9.60;;;8.60;;
32964;SDS011;19317;48.226;11.686;2023-11-22T21:16:58;8.60;;;7.80;;
32964;SDS011;19317;48.226;11.686;2023-11-22T21:21:49;12.43;;;10.20;;
32964;SDS011;19317;48.226;11.686;2023-11-22T21:26:40;9.73;;;8.73;;
32964;SDS011;19317;48.226;11.686;2023-11-22T21:31:31;9.30;;;8.00;;
32964;SDS011;19317;48.226;11.686;2023-11-22T21:36:21;9.50;;;7.70;;
32964;SDS011;19317;48.226;11.686;2023-11-22T21:41:12;8.33;;;7.53;;
32964;SDS011;19317;48.226;11.686;2023-11-22T21:46:03;9.07;;;8.17;;
32964;SDS011;19317;48.226;11.686;2023-11-22T21:50:55;8.87;;;7.83;;
32964;SDS011;19317;48.226;11.686;2023-11-22T21:55:45;9.90;;;8.93;;
32964;SDS011;19317;48.226;11.686;2023-11-22T22:00:36;10.07;;;9.07;;
32964;SDS011;19317;48.226;11.686;2023-11-22T22:05:27;10.00;;;9.00;;
32964;SDS011;19317;48.226;11.686;2023-11-22T22:10:18;9.80;;;8.80;;
32964;SDS011;19317;48.226;11.686;2023-11-22T22:15:09;10.60;;;9.50;;
32964;SDS011;19317;48.226;11.686;2023-11-22T22:20:00;10.67;;;9.00;;
32964;SDS011;19317;48.226;11.686;2023-11-22T22:24:51;10.37;;;8.93;;
32964;SDS011;19317;48.226;11.686;2023-11-22T22:29:42;10.10;;;9.10;;
32964;SDS011;19317;48.226;11.686;2023-11-22T22:34:32;9.90;;;8.80;;
32964;SDS011;19317;48.226;11.686;2023-11-22T22:39:23;10.43;;;8.33;;
32964;SDS011;19317;48.226;11.686;2023-11-22T22:44:14;10.97;;;8.93;;
32964;SDS011;19317;48.226;11.686;2023-11-22T22:49:05;11.97;;;9.83;;
32964;SDS011;19317;48.226;11.686;2023-11-22T22:53:56;11.40;;;8.73;;
32964;SDS011;19317;48.226;11.686;2023-11-22T22:58:47;10.33;;;8.93;;
32964;SDS011;19317;48.226;11.686;2023-11-22T23:03:38;10.53;;;8.97;;
32964;SDS011;19317;48.226;11.686;2023-11-22T23:08:29;11.43;;;9.13;;
32964;SDS011;19317;48.226;11.686;2023-11-22T23:13:19;10.90;;;9.43;;
32964;SDS011;19317;48.226;11.686;2023-11-22T23:18:10;8.77;;;7.87;;
32964;SDS011;19317;48.226;11.686;2023-11-22T23:23:01;11.00;;;9.07;;
32964;SDS011;19317;48.226;11.686;2023-11-22T23:27:52;11.90;;;10.30;;
32964;SDS011;19317;48.226;11.686;2023-11-22T23:32:43;10.97;;;9.87;;
32964;SDS011;19317;48.226;11.686;2023-11-22T23:37:34;11.57;;;9.23;;
32964;SDS011;19317;48.226;11.686;2023-11-22T23:42:25;11.17;;;9.80;;
32964;SDS011;19317;48.226;11.686;2023-11-22T23:47:16;12.37;;;9.37;;
32964;SDS011;19317;48.226;11.686;2023-11-22T23:52:07;11.97;;;9.60;;
32964;SDS011;19317;48.226;11.686;2023-11-22T23:56:57;12.37;;;10.07;;
